Time;durP1;ratioP1;P1;durP2;ratioP2;P2;SDS_P1;SDS_P2;PMS_P1;PMS_P2;Temp;Humidity;BMP_temperature;BMP_pressure;BME280_temperature;BME280_humidity;BME280_pressure;Samples;Min_cycle;Max_cycle;Signal;HPM_P1;HPM_P2
2023/03/14 00:01:54;;;;;;;4.20;1.30;;;;;;;;;;5070095;28;20092;-69
2023/03/14 00:04:21;;;;;;;6.60;1.23;;;;;;;;;;5069426;28;20076;-68
2023/03/14 00:06:49;;;;;;;3.28;1.15;;;;;;;;;;5069720;28;20131;-68
2023/03/14 00:09:16;;;;;;;4.72;1.20;;;;;;;;;;5069380;28;20048;-68
2023/03/14 00:11:43;;;;;;;4.03;1.65;;;;;;;;;;5069776;28;20083;-68
2023/03/14 00:14:10;;;;;;;4.35;1.83;;;;;;;;;;5069448;28;20099;-68
2023/03/14 00:16:38;;;;;;;6.05;1.60;;;;;;;;;;5069213;28;20084;-68
2023/03/14 00:19:04;;;;;;;4.00;1.15;;;;;;;;;;5069935;28;20393;-68
2023/03/14 00:21:31;;;;;;;5.45;1.48;;;;;;;;;;5069199;28;20104;-68
2023/03/14 00:23:58;;;;;;;3.92;1.40;;;;;;;;;;5069297;28;20490;-68
2023/03/14 00:26:24;;;;;;;4.90;1.50;;;;;;;;;;5069369;28;20541;-68
2023/03/14 00:28:53;;;;;;;5.30;1.55;;;;;;;;;;5069077;28;20079;-68
2023/03/14 00:31:19;;;;;;;7.10;1.83;;;;;;;;;;5068522;28;20048;-68
2023/03/14 00:33:48;;;;;;;5.50;1.45;;;;;;;;;;5069463;28;20501;-68
2023/03/14 00:36:17;;;;;;;4.63;1.65;;;;;;;;;;5069046;28;20502;-68
2023/03/14 00:38:45;;;;;;;4.22;1.33;;;;;;;;;;5068899;28;20053;-68
2023/03/14 00:41:14;;;;;;;4.60;1.48;;;;;;;;;;5069305;28;20494;-68
2023/03/14 00:43:41;;;;;;;7.63;1.52;;;;;;;;;;5069254;28;20136;-68
2023/03/14 00:46:08;;;;;;;6.90;1.52;;;;;;;;;;5068963;28;20055;-69
2023/03/14 00:48:35;;;;;;;6.38;1.50;;;;;;;;;;5070961;28;20488;-68
2023/03/14 00:51:04;;;;;;;5.00;1.42;;;;;;;;;;5072353;28;20132;-68
2023/03/14 00:53:30;;;;;;;5.10;2.17;;;;;;;;;;5073052;28;20132;-68
2023/03/14 00:55:57;;;;;;;3.38;1.42;;;;;;;;;;5072700;28;20080;-69
2023/03/14 00:58:24;;;;;;;6.38;1.77;;;;;;;;;;5072672;28;20505;-68
2023/03/14 01:00:50;;;;;;;5.55;1.60;;;;;;;;;;5073080;28;20044;-68
2023/03/14 01:03:17;;;;;;;7.45;1.77;;;;;;;;;;5073185;28;20049;-68
2023/03/14 01:05:43;;;;;;;9.13;1.70;;;;;;;;;;5059227;28;20131;-68
2023/03/14 01:08:12;;;;;;;7.30;1.48;;;;;;;;;;5052298;28;20132;-68
2023/03/14 01:10:41;;;;;;;11.65;1.85;;;;;;;;;;5052747;28;20049;-68
2023/03/14 01:13:07;;;;;;;5.28;1.55;;;;;;;;;;5052063;28;20117;-68
2023/03/14 01:15:34;;;;;;;4.78;1.42;;;;;;;;;;5052539;28;20040;-68
2023/03/14 01:18:01;;;;;;;7.88;1.65;;;;;;;;;;5051680;28;20112;-68
2023/03/14 01:20:27;;;;;;;4.78;1.38;;;;;;;;;;5052275;28;20051;-68
2023/03/14 01:22:54;;;;;;;6.80;1.40;;;;;;;;;;5052157;28;20048;-68
2023/03/14 01:25:22;;;;;;;6.70;1.58;;;;;;;;;;5052723;28;20040;-68
2023/03/14 01:27:49;;;;;;;5.40;1.38;;;;;;;;;;5051584;28;20101;-68
2023/03/14 01:30:16;;;;;;;5.70;1.45;;;;;;;;;;5052173;28;20391;-68
2023/03/14 01:32:42;;;;;;;7.82;1.77;;;;;;;;;;5051728;28;20132;-68
2023/03/14 01:35:09;;;;;;;5.07;1.63;;;;;;;;;;5054761;28;20037;-68
2023/03/14 01:37:36;;;;;;;7.72;1.60;;;;;;;;;;5071380;28;20056;-68
2023/03/14 01:40:05;;;;;;;6.93;1.95;;;;;;;;;;5071930;28;20049;-68
2023/03/14 01:42:33;;;;;;;5.80;1.30;;;;;;;;;;5072104;28;20102;-68
2023/03/14 01:45:01;;;;;;;5.65;1.30;;;;;;;;;;5071579;28;20189;-68
2023/03/14 01:47:28;;;;;;;3.38;1.20;;;;;;;;;;5071845;28;20587;-68
2023/03/14 01:49:59;;;;;;;7.50;1.42;;;;;;;;;;5071575;28;20052;-68
2023/03/14 01:52:31;;;;;;;4.50;1.40;;;;;;;;;;5071952;28;20040;-68
2023/03/14 01:55:03;;;;;;;8.00;1.73;;;;;;;;;;5071631;28;20046;-68
2023/03/14 01:57:32;;;;;;;4.65;1.90;;;;;;;;;;5071614;28;20056;-69
2023/03/14 02:00:10;;;;;;;3.05;1.20;;;;;;;;;;5070730;28;20432;-68
2023/03/14 02:02:37;;;;;;;5.97;1.77;;;;;;;;;;5071910;28;20057;-68
2023/03/14 02:05:04;;;;;;;7.32;1.63;;;;;;;;;;5070462;28;20049;-68
2023/03/14 02:07:37;;;;;;;6.97;1.60;;;;;;;;;;5071594;28;20490;-69
2023/03/14 02:10:06;;;;;;;4.50;1.30;;;;;;;;;;5071038;28;20044;-68
2023/03/14 02:12:33;;;;;;;4.22;1.20;;;;;;;;;;5071641;28;20080;-68
2023/03/14 02:15:01;;;;;;;4.85;1.20;;;;;;;;;;5071158;28;20049;-68
2023/03/14 02:17:28;;;;;;;3.88;1.02;;;;;;;;;;5071291;28;20140;-68
2023/03/14 02:20:15;;;;;;;2.83;1.10;;;;;;;;;;5070868;28;20128;-68
2023/03/14 02:22:43;;;;;;;4.38;1.10;;;;;;;;;;5071003;28;20058;-68
2023/03/14 02:25:16;;;;;;;3.78;1.30;;;;;;;;;;5070031;28;20094;-68
2023/03/14 02:27:45;;;;;;;9.85;2.45;;;;;;;;;;5071066;28;20040;-68
2023/03/14 02:30:15;;;;;;;3.97;1.27;;;;;;;;;;5070745;28;20620;-68
2023/03/14 02:32:45;;;;;;;5.65;1.40;;;;;;;;;;5071178;28;20551;-68
2023/03/14 02:35:15;;;;;;;4.18;1.27;;;;;;;;;;5070593;28;20050;-68
2023/03/14 02:37:46;;;;;;;3.33;1.05;;;;;;;;;;5070838;28;20577;-68
2023/03/14 02:40:13;;;;;;;4.00;1.05;;;;;;;;;;5070661;28;20053;-68
2023/03/14 02:42:40;;;;;;;6.80;1.30;;;;;;;;;;5071069;28;20047;-68
2023/03/14 02:45:37;;;;;;;6.55;1.35;;;;;;;;;;5071087;28;20044;-68
2023/03/14 02:48:08;;;;;;;5.72;1.33;;;;;;;;;;5070421;28;20331;-69
2023/03/14 02:50:35;;;;;;;6.63;1.77;;;;;;;;;;5069282;28;20052;-69
2023/03/14 02:53:02;;;;;;;6.25;1.92;;;;;;;;;;5070530;28;20041;-68
2023/03/14 02:55:28;;;;;;;4.22;1.13;;;;;;;;;;5070319;28;20128;-68
2023/03/14 02:57:55;;;;;;;5.07;1.25;;;;;;;;;;5070068;28;20055;-68
2023/03/14 03:00:22;;;;;;;6.63;1.20;;;;;;;;;;5069964;28;20106;-68
2023/03/14 03:02:50;;;;;;;5.50;1.00;;;;;;;;;;5070199;28;20048;-68
2023/03/14 03:05:16;;;;;;;6.40;1.40;;;;;;;;;;5070472;28;20532;-68
2023/03/14 03:07:43;;;;;;;2.45;1.10;;;;;;;;;;5069989;28;20048;-69
2023/03/14 03:10:10;;;;;;;5.45;1.27;;;;;;;;;;5070398;28;20044;-68
2023/03/14 03:12:37;;;;;;;2.92;1.23;;;;;;;;;;5069747;28;20053;-69
2023/03/14 03:15:04;;;;;;;6.00;1.50;;;;;;;;;;5070453;28;20041;-68
2023/03/14 03:17:31;;;;;;;7.13;1.10;;;;;;;;;;5069789;28;20049;-68
2023/03/14 03:19:59;;;;;;;5.47;1.30;;;;;;;;;;5070212;28;20413;-68
2023/03/14 03:22:25;;;;;;;8.13;1.20;;;;;;;;;;5069930;28;20051;-68
2023/03/14 03:24:52;;;;;;;6.60;1.85;;;;;;;;;;5070169;28;20041;-68
2023/03/14 03:27:18;;;;;;;5.22;1.17;;;;;;;;;;5067881;28;20482;-68
2023/03/14 03:29:45;;;;;;;4.20;1.20;;;;;;;;;;5070145;28;20493;-68
2023/03/14 03:32:11;;;;;;;4.15;0.90;;;;;;;;;;5069849;28;20055;-68
2023/03/14 03:34:38;;;;;;;2.72;1.00;;;;;;;;;;5070073;28;20062;-68
2023/03/14 03:37:06;;;;;;;3.30;1.17;;;;;;;;;;5069674;28;20059;-68
2023/03/14 03:39:32;;;;;;;2.30;0.70;;;;;;;;;;5069535;28;20478;-68
2023/03/14 03:41:59;;;;;;;4.03;1.10;;;;;;;;;;5069817;28;20056;-68
2023/03/14 03:44:25;;;;;;;3.45;0.93;;;;;;;;;;5069659;28;20044;-68
2023/03/14 03:46:52;;;;;;;2.00;0.68;;;;;;;;;;5069333;28;20127;-68
2023/03/14 03:49:18;;;;;;;3.78;0.70;;;;;;;;;;5069511;28;20050;-68
2023/03/14 03:51:45;;;;;;;5.53;0.90;;;;;;;;;;5070338;28;20041;-68
2023/03/14 03:54:13;;;;;;;2.05;0.70;;;;;;;;;;5069310;28;20049;-68
2023/03/14 03:56:40;;;;;;;3.67;1.13;;;;;;;;;;5068486;28;20056;-68
2023/03/14 03:59:06;;;;;;;3.00;0.70;;;;;;;;;;5069314;28;20045;-68
2023/03/14 04:01:33;;;;;;;2.05;0.90;;;;;;;;;;5070002;28;20045;-68
2023/03/14 04:03:59;;;;;;;2.95;1.00;;;;;;;;;;5069476;28;20059;-68
2023/03/14 04:06:26;;;;;;;3.25;0.80;;;;;;;;;;5069718;28;20040;-68
2023/03/14 04:08:52;;;;;;;3.05;1.48;;;;;;;;;;5068871;28;20047;-68
2023/03/14 04:11:20;;;;;;;2.90;1.20;;;;;;;;;;5070051;28;20074;-68
2023/03/14 04:13:47;;;;;;;4.13;0.93;;;;;;;;;;5084193;22;20045;-67
2023/03/14 04:16:17;;;;;;;5.28;1.10;;;;;;;;;;5069893;28;20131;-67
2023/03/14 04:18:44;;;;;;;4.20;0.88;;;;;;;;;;5069793;28;20076;-66
2023/03/14 04:21:10;;;;;;;3.08;0.90;;;;;;;;;;5070056;28;20067;-67
2023/03/14 04:23:37;;;;;;;2.72;0.90;;;;;;;;;;5072095;28;20087;-67
2023/03/14 04:26:04;;;;;;;3.50;1.10;;;;;;;;;;5073497;28;20045;-67
2023/03/14 04:28:32;;;;;;;1.58;0.50;;;;;;;;;;5073891;28;20048;-67
2023/03/14 04:30:59;;;;;;;2.95;0.85;;;;;;;;;;5073408;28;20048;-66
2023/03/14 04:33:26;;;;;;;3.58;0.90;;;;;;;;;;5073601;28;20466;-67
2023/03/14 04:35:55;;;;;;;4.20;0.70;;;;;;;;;;5073601;28;20080;-67
2023/03/14 04:38:22;;;;;;;2.92;0.68;;;;;;;;;;5073695;28;20079;-66
2023/03/14 04:40:48;;;;;;;2.65;0.73;;;;;;;;;;5073101;28;20041;-67
2023/03/14 04:43:15;;;;;;;2.58;0.60;;;;;;;;;;5073244;28;20072;-66
2023/03/14 04:45:43;;;;;;;1.77;0.70;;;;;;;;;;5073381;28;20083;-67
2023/03/14 04:48:11;;;;;;;5.05;1.00;;;;;;;;;;5073482;28;20084;-67
2023/03/14 04:50:37;;;;;;;3.22;0.85;;;;;;;;;;5072917;28;20094;-67
2023/03/14 04:53:04;;;;;;;0.70;0.70;;;;;;;;;;5073082;28;20090;-66
2023/03/14 04:55:32;;;;;;;1.25;0.70;;;;;;;;;;5073328;28;20135;-67
2023/03/14 04:57:58;;;;;;;3.58;0.90;;;;;;;;;;5073039;28;20045;-67
2023/03/14 05:00:25;;;;;;;2.78;0.57;;;;;;;;;;5072940;28;20128;-67
2023/03/14 05:02:53;;;;;;;2.47;0.70;;;;;;;;;;5073259;28;20084;-67
2023/03/14 05:05:20;;;;;;;3.13;1.00;;;;;;;;;;5073155;28;20103;-67
2023/03/14 05:07:46;;;;;;;4.72;1.02;;;;;;;;;;5073076;28;20052;-67
2023/03/14 05:10:13;;;;;;;3.67;0.80;;;;;;;;;;5073174;28;20543;-66
2023/03/14 05:12:39;;;;;;;2.80;0.80;;;;;;;;;;5072584;28;20072;-66
2023/03/14 05:15:07;;;;;;;2.42;0.88;;;;;;;;;;5072763;28;20114;-68
2023/03/14 05:17:34;;;;;;;3.47;0.95;;;;;;;;;;5072665;28;20136;-66
2023/03/14 05:20:07;;;;;;;1.70;1.00;;;;;;;;;;5073049;28;20044;-67
2023/03/14 05:22:34;;;;;;;2.42;0.85;;;;;;;;;;5072302;28;20049;-67
2023/03/14 05:25:01;;;;;;;1.48;0.70;;;;;;;;;;5073072;28;20040;-66
2023/03/14 05:27:27;;;;;;;5.57;1.20;;;;;;;;;;5072812;28;20076;-67
2023/03/14 05:29:54;;;;;;;3.70;1.35;;;;;;;;;;5072749;28;20052;-67
2023/03/14 05:32:20;;;;;;;1.73;0.90;;;;;;;;;;5072282;28;20041;-66
2023/03/14 05:34:47;;;;;;;2.55;0.88;;;;;;;;;;5071489;28;20052;-66
2023/03/14 05:37:15;;;;;;;2.05;0.70;;;;;;;;;;5072339;28;20492;-67
2023/03/14 05:39:42;;;;;;;4.22;0.80;;;;;;;;;;5072088;28;20132;-66
2023/03/14 05:42:08;;;;;;;2.65;0.75;;;;;;;;;;5072093;28;20496;-67
2023/03/14 05:44:35;;;;;;;3.72;1.13;;;;;;;;;;5072472;28;20079;-67
2023/03/14 05:47:01;;;;;;;2.95;0.82;;;;;;;;;;5072148;28;20136;-67
2023/03/14 05:49:28;;;;;;;3.38;0.85;;;;;;;;;;5071946;28;20376;-67
2023/03/14 05:51:55;;;;;;;2.42;1.20;;;;;;;;;;5072271;28;20133;-67
2023/03/14 05:54:23;;;;;;;4.70;1.20;;;;;;;;;;5071990;28;20501;-67
2023/03/14 05:56:49;;;;;;;2.85;0.75;;;;;;;;;;5071995;28;20131;-66
2023/03/14 05:59:16;;;;;;;2.95;1.00;;;;;;;;;;5071800;28;20470;-67
2023/03/14 06:01:42;;;;;;;2.85;0.98;;;;;;;;;;5072200;28;20045;-67
2023/03/14 06:04:09;;;;;;;3.63;1.00;;;;;;;;;;5071436;28;20127;-67
2023/03/14 06:06:36;;;;;;;1.60;0.85;;;;;;;;;;5072183;28;20151;-67
2023/03/14 06:09:02;;;;;;;3.05;0.88;;;;;;;;;;5071693;28;20131;-67
2023/03/14 06:11:30;;;;;;;1.95;0.82;;;;;;;;;;5071922;28;20134;-67
2023/03/14 06:13:57;;;;;;;3.40;0.98;;;;;;;;;;5071109;28;20084;-67
2023/03/14 06:16:24;;;;;;;6.43;1.13;;;;;;;;;;5071794;28;20087;-66
2023/03/14 06:18:52;;;;;;;1.65;0.90;;;;;;;;;;5071358;28;20076;-66
2023/03/14 06:21:19;;;;;;;5.60;1.17;;;;;;;;;;5071424;28;20109;-67
2023/03/14 06:23:45;;;;;;;2.00;0.80;;;;;;;;;;5071168;28;20404;-67
2023/03/14 06:26:12;;;;;;;5.57;1.33;;;;;;;;;;5071618;28;20040;-67
2023/03/14 06:28:40;;;;;;;1.60;0.88;;;;;;;;;;5071247;28;20079;-67
2023/03/14 06:31:07;;;;;;;2.47;0.80;;;;;;;;;;5070651;28;20087;-67
2023/03/14 06:33:34;;;;;;;1.60;0.70;;;;;;;;;;5071593;28;20148;-67
2023/03/14 06:36:00;;;;;;;0.88;0.82;;;;;;;;;;5071114;28;20048;-67
2023/03/14 06:38:27;;;;;;;5.88;0.98;;;;;;;;;;5070931;28;20157;-67
2023/03/14 06:40:53;;;;;;;1.27;0.88;;;;;;;;;;5071130;28;20147;-67
2023/03/14 06:43:20;;;;;;;2.25;0.70;;;;;;;;;;5071003;28;20083;-67
2023/03/14 06:45:48;;;;;;;4.40;1.30;;;;;;;;;;5070794;28;20547;-67
2023/03/14 06:48:15;;;;;;;2.15;0.70;;;;;;;;;;5071321;28;20492;-67
2023/03/14 06:50:42;;;;;;;1.90;0.80;;;;;;;;;;5071244;28;20131;-67
2023/03/14 06:53:09;;;;;;;2.95;0.70;;;;;;;;;;5070833;28;20041;-67
2023/03/14 06:55:36;;;;;;;1.73;0.77;;;;;;;;;;5070570;28;20123;-67
2023/03/14 06:58:03;;;;;;;2.10;1.00;;;;;;;;;;5070817;28;20117;-67
2023/03/14 07:00:29;;;;;;;3.17;0.98;;;;;;;;;;5069581;28;20064;-67
2023/03/14 07:02:57;;;;;;;1.45;0.80;;;;;;;;;;5069964;28;20044;-67
2023/03/14 07:05:24;;;;;;;2.97;0.80;;;;;;;;;;5069868;28;20072;-68
2023/03/14 07:07:50;;;;;;;2.17;0.80;;;;;;;;;;5070203;28;20510;-67
2023/03/14 07:10:18;;;;;;;1.98;1.33;;;;;;;;;;5069749;28;20087;-68
2023/03/14 07:12:44;;;;;;;3.50;1.80;;;;;;;;;;5069734;28;20110;-66
2023/03/14 07:15:11;;;;;;;3.85;0.88;;;;;;;;;;5070669;28;20143;-67
2023/03/14 07:17:38;;;;;;;1.48;0.85;;;;;;;;;;5070307;28;20101;-67
2023/03/14 07:20:09;;;;;;;3.17;0.90;;;;;;;;;;5070267;28;20516;-67
2023/03/14 07:22:35;;;;;;;0.70;0.60;;;;;;;;;;5070404;28;20044;-67
2023/03/14 07:25:02;;;;;;;2.05;0.90;;;;;;;;;;5070454;28;20160;-67
2023/03/14 07:27:29;;;;;;;4.97;1.75;;;;;;;;;;5070168;28;20044;-68
2023/03/14 07:29:55;;;;;;;1.52;0.60;;;;;;;;;;5070664;28;20078;-67
2023/03/14 07:32:22;;;;;;;2.10;0.70;;;;;;;;;;5070161;28;20075;-67
2023/03/14 07:34:49;;;;;;;1.50;0.73;;;;;;;;;;5070113;28;20063;-68
2023/03/14 07:37:17;;;;;;;2.40;1.00;;;;;;;;;;5070208;28;20070;-67
2023/03/14 07:39:43;;;;;;;2.67;0.93;;;;;;;;;;5069470;28;20136;-68
2023/03/14 07:42:10;;;;;;;2.08;1.10;;;;;;;;;;5070324;28;20477;-68
2023/03/14 07:44:37;;;;;;;1.20;0.80;;;;;;;;;;5070150;28;20060;-67
2023/03/14 07:47:04;;;;;;;1.88;0.70;;;;;;;;;;5070472;28;20048;-68
2023/03/14 07:49:31;;;;;;;2.88;0.80;;;;;;;;;;5069049;28;20091;-68
2023/03/14 07:51:57;;;;;;;2.50;1.15;;;;;;;;;;5062255;28;20152;-69
2023/03/14 07:54:25;;;;;;;1.83;0.50;;;;;;;;;;5064681;28;20123;-69
2023/03/14 07:56:52;;;;;;;1.35;0.70;;;;;;;;;;5068931;28;20055;-72
2023/03/14 07:59:19;;;;;;;2.28;0.98;;;;;;;;;;5072781;28;20053;-70
2023/03/14 08:01:46;;;;;;;0.82;0.60;;;;;;;;;;5073283;28;20044;-70
2023/03/14 08:04:12;;;;;;;2.25;1.00;;;;;;;;;;5068485;28;20047;-69
2023/03/14 08:41:01;;;;;;;1.75;0.60;;;;;;;;;;5024209;27;20382;-69
2023/03/14 08:43:29;;;;;;;1.17;0.70;;;;;;;;;;5026943;28;20042;-69
2023/03/14 08:45:58;;;;;;;0.93;0.70;;;;;;;;;;5009786;28;20078;-70
2023/03/14 08:48:25;;;;;;;1.08;0.68;;;;;;;;;;5003859;28;20046;-69
2023/03/14 08:50:52;;;;;;;0.68;0.68;;;;;;;;;;5030682;28;20058;-70
2023/03/14 08:53:18;;;;;;;1.42;0.52;;;;;;;;;;5003929;28;20042;-70
2023/03/14 08:55:45;;;;;;;0.70;0.70;;;;;;;;;;5021878;28;20080;-70
2023/03/14 08:58:13;;;;;;;0.77;0.68;;;;;;;;;;5022318;28;20050;-71
2023/03/14 09:00:39;;;;;;;1.20;0.90;;;;;;;;;;5022524;28;20060;-70
2023/03/14 09:03:06;;;;;;;0.80;0.73;;;;;;;;;;5023279;28;20081;-70
2023/03/14 09:05:34;;;;;;;0.85;0.70;;;;;;;;;;5023977;28;20042;-71
2023/03/14 09:08:00;;;;;;;2.13;1.15;;;;;;;;;;5022891;28;20424;-71
2023/03/14 09:10:27;;;;;;;4.63;0.85;;;;;;;;;;5023912;28;20697;-71
2023/03/14 09:12:54;;;;;;;1.58;0.88;;;;;;;;;;5023388;28;20140;-71
2023/03/14 09:15:22;;;;;;;3.97;0.90;;;;;;;;;;5023773;28;20045;-71
2023/03/14 09:17:48;;;;;;;0.60;0.60;;;;;;;;;;5023472;28;20422;-71
2023/03/14 09:20:15;;;;;;;0.90;0.60;;;;;;;;;;5023270;28;20384;-71
2023/03/14 09:22:41;;;;;;;1.20;0.50;;;;;;;;;;5023808;28;20491;-71
2023/03/14 09:25:10;;;;;;;0.63;0.55;;;;;;;;;;5023714;28;20129;-71
2023/03/14 09:27:36;;;;;;;0.90;0.55;;;;;;;;;;5023123;28;20530;-71
2023/03/14 09:30:04;;;;;;;1.00;0.50;;;;;;;;;;5023357;28;20485;-71
2023/03/14 09:32:32;;;;;;;1.10;0.60;;;;;;;;;;5024061;28;20130;-71
2023/03/14 09:34:59;;;;;;;1.02;0.60;;;;;;;;;;5023171;28;20114;-71
2023/03/14 09:37:25;;;;;;;0.50;0.50;;;;;;;;;;5024130;28;20391;-71
2023/03/14 09:39:52;;;;;;;0.85;0.52;;;;;;;;;;5023017;28;20427;-71
2023/03/14 09:42:23;;;;;;;0.57;0.50;;;;;;;;;;5023291;28;20132;-71
2023/03/14 09:44:55;;;;;;;2.75;0.65;;;;;;;;;;5023419;28;20052;-71
2023/03/14 09:47:23;;;;;;;0.85;0.70;;;;;;;;;;5023840;28;20449;-71
2023/03/14 09:49:52;;;;;;;1.50;0.93;;;;;;;;;;5023123;28;20062;-70
2023/03/14 09:52:22;;;;;;;0.88;0.60;;;;;;;;;;5010362;28;20445;-70
2023/03/14 09:54:51;;;;;;;0.60;0.60;;;;;;;;;;5009890;28;20149;-70
2023/03/14 09:57:20;;;;;;;1.00;0.90;;;;;;;;;;5009689;28;20132;-70
2023/03/14 09:59:49;;;;;;;1.20;0.60;;;;;;;;;;5009932;28;20046;-70
2023/03/14 10:02:19;;;;;;;0.60;0.60;;;;;;;;;;5008481;28;20052;-70
2023/03/14 10:04:47;;;;;;;1.75;0.60;;;;;;;;;;5008094;28;20406;-70
2023/03/14 10:07:19;;;;;;;0.77;0.50;;;;;;;;;;5008036;28;20046;-70
2023/03/14 10:09:46;;;;;;;0.40;0.40;;;;;;;;;;5008984;28;20477;-71
2023/03/14 10:12:12;;;;;;;0.55;0.50;;;;;;;;;;5022151;23;20077;-68
2023/03/14 10:14:47;;;;;;;0.40;0.40;;;;;;;;;;4968290;28;20051;-68
2023/03/14 10:17:15;;;;;;;0.40;0.40;;;;;;;;;;4969120;28;20559;-69
2023/03/14 10:19:53;;;;;;;0.40;0.40;;;;;;;;;;4969646;28;20137;-69
2023/03/14 10:22:23;;;;;;;1.00;0.50;;;;;;;;;;4969824;28;20051;-69
2023/03/14 10:24:53;;;;;;;0.30;0.30;;;;;;;;;;4969723;28;20050;-69
2023/03/14 10:27:22;;;;;;;0.40;0.40;;;;;;;;;;4969465;28;20047;-69
2023/03/14 10:29:54;;;;;;;0.40;0.40;;;;;;;;;;4969301;28;20520;-69
2023/03/14 10:32:22;;;;;;;0.45;0.45;;;;;;;;;;4969449;28;20058;-69
2023/03/14 10:35:07;;;;;;;0.50;0.50;;;;;;;;;;4969290;28;20178;-69
2023/03/14 10:37:36;;;;;;;0.40;0.40;;;;;;;;;;4969425;28;20132;-69
2023/03/14 10:40:05;;;;;;;1.80;0.47;;;;;;;;;;4969114;28;20042;-69
2023/03/14 10:42:34;;;;;;;1.10;0.60;;;;;;;;;;4969622;28;20500;-68
2023/03/14 10:45:03;;;;;;;1.45;0.68;;;;;;;;;;4968889;28;20059;-69
2023/03/14 10:47:30;;;;;;;2.50;0.70;;;;;;;;;;4969175;28;20054;-69
2023/03/14 10:49:58;;;;;;;2.35;0.70;;;;;;;;;;4969251;28;20097;-69
2023/03/14 10:52:26;;;;;;;0.73;0.60;;;;;;;;;;4969957;28;20050;-68
2023/03/14 10:54:59;;;;;;;0.60;0.60;;;;;;;;;;4969717;28;20135;-69
2023/03/14 10:57:26;;;;;;;;;;;;;;;;;;4969570;28;20054;-69
2023/03/14 10:59:56;;;;;;;0.52;0.50;;;;;;;;;;4968741;28;19944;-69
2023/03/14 11:02:48;;;;;;;0.68;0.68;;;;;;;;;;4968754;28;20232;-69
2023/03/14 11:05:29;;;;;;;0.70;0.70;;;;;;;;;;4975015;28;20054;-69
2023/03/14 11:07:59;;;;;;;0.85;0.70;;;;;;;;;;4968560;28;20104;-69
2023/03/14 11:10:33;;;;;;;0.75;0.75;;;;;;;;;;4968839;28;20046;-68
2023/03/14 11:13:08;;;;;;;0.60;0.60;;;;;;;;;;4969854;28;20051;-69
2023/03/14 11:15:39;;;;;;;1.00;0.90;;;;;;;;;;4969198;28;20388;-68
2023/03/14 11:18:37;;;;;;;0.60;0.60;;;;;;;;;;4968667;28;20236;-68
2023/03/14 11:21:12;;;;;;;1.55;0.80;;;;;;;;;;4969404;28;20050;-69
2023/03/14 11:23:45;;;;;;;0.80;0.80;;;;;;;;;;4969748;28;20043;-69
2023/03/14 11:26:25;;;;;;;0.88;0.80;;;;;;;;;;4969576;28;20046;-69
2023/03/14 11:28:58;;;;;;;1.48;0.80;;;;;;;;;;4969648;28;20506;-69
2023/03/14 11:31:27;;;;;;;0.73;0.73;;;;;;;;;;4969475;28;20055;-69
2023/03/14 11:34:00;;;;;;;0.80;0.80;;;;;;;;;;4969561;28;20129;-69
2023/03/14 11:36:31;;;;;;;;;;;;;;;;;;4970056;28;20147;-69
2023/03/14 11:38:59;;;;;;;0.77;0.75;;;;;;;;;;4968728;28;20491;-69
2023/03/14 11:41:32;;;;;;;1.20;0.75;;;;;;;;;;4969621;28;20085;-69
2023/03/14 11:44:02;;;;;;;1.00;1.00;;;;;;;;;;4969073;28;20051;-69
2023/03/14 11:46:34;;;;;;;0.77;0.77;;;;;;;;;;4969330;28;20058;-69
2023/03/14 11:49:07;;;;;;;1.45;0.70;;;;;;;;;;4968705;28;20139;-69
2023/03/14 11:51:36;;;;;;;0.90;0.80;;;;;;;;;;4967660;28;20055;-69
2023/03/14 11:54:12;;;;;;;2.33;1.10;;;;;;;;;;4964436;28;20051;-69
2023/03/14 11:56:47;;;;;;;0.90;0.70;;;;;;;;;;4969551;28;20050;-69
2023/03/14 11:59:19;;;;;;;0.60;0.60;;;;;;;;;;4968957;28;20126;-68
2023/03/14 12:01:54;;;;;;;1.52;0.80;;;;;;;;;;4960123;28;20309;-69
2023/03/14 12:04:32;;;;;;;1.17;0.70;;;;;;;;;;4949505;28;20253;-69
2023/03/14 12:07:03;;;;;;;1.10;0.95;;;;;;;;;;4949696;28;20493;-69
2023/03/14 12:09:30;;;;;;;1.13;0.77;;;;;;;;;;4949533;28;20077;-68
2023/03/14 12:12:01;;;;;;;1.05;0.95;;;;;;;;;;4949937;28;20077;-69
2023/03/14 12:14:30;;;;;;;1.08;0.80;;;;;;;;;;4948563;28;20520;-69
2023/03/14 12:16:59;;;;;;;2.25;1.10;;;;;;;;;;4949378;28;20408;-69
2023/03/14 12:19:32;;;;;;;0.93;0.90;;;;;;;;;;4953212;28;20084;-68
2023/03/14 12:22:06;;;;;;;1.65;0.98;;;;;;;;;;4949279;28;20051;-68
2023/03/14 12:24:35;;;;;;;0.90;0.90;;;;;;;;;;4948978;28;20050;-69
2023/03/14 12:27:06;;;;;;;2.22;1.00;;;;;;;;;;4949277;28;20493;-69
2023/03/14 12:29:33;;;;;;;1.38;1.10;;;;;;;;;;4949489;28;20047;-69
2023/03/14 12:32:23;;;;;;;2.10;0.85;;;;;;;;;;4949135;28;20129;-69
2023/03/14 12:34:50;;;;;;;0.98;0.95;;;;;;;;;;4949376;28;20051;-69
2023/03/14 12:37:34;;;;;;;2.15;0.90;;;;;;;;;;4948582;28;20101;-69
2023/03/14 12:40:21;;;;;;;2.13;0.90;;;;;;;;;;4949031;28;20134;-69
2023/03/14 12:42:59;;;;;;;2.38;0.82;;;;;;;;;;4949215;28;20134;-69
2023/03/14 12:45:29;;;;;;;1.63;1.13;;;;;;;;;;4949683;29;20054;-69
2023/03/14 12:48:09;;;;;;;0.70;0.70;;;;;;;;;;4949240;28;20058;-69
2023/03/14 12:50:47;;;;;;;1.73;0.90;;;;;;;;;;4962520;28;20313;-69
2023/03/14 12:53:41;;;;;;;5.32;0.98;;;;;;;;;;4948679;28;20078;-69
2023/03/14 12:56:19;;;;;;;2.10;0.90;;;;;;;;;;4949352;29;20138;-69
2023/03/14 12:59:00;;;;;;;0.85;0.77;;;;;;;;;;4948716;29;20043;-69
2023/03/14 13:01:27;;;;;;;1.58;0.85;;;;;;;;;;4949055;28;20051;-69
2023/03/14 13:03:57;;;;;;;0.60;0.60;;;;;;;;;;4948943;28;20134;-69
2023/03/14 13:06:47;;;;;;;3.05;0.80;;;;;;;;;;4949401;28;20061;-69
2023/03/14 13:09:58;;;;;;;1.50;0.70;;;;;;;;;;4948058;28;20051;-69
2023/03/14 13:12:32;;;;;;;1.90;0.98;;;;;;;;;;4921684;28;20138;-69
2023/03/14 13:15:02;;;;;;;1.45;0.70;;;;;;;;;;4948392;28;20051;-69
2023/03/14 13:17:33;;;;;;;2.63;0.80;;;;;;;;;;4948789;28;20077;-69
2023/03/14 13:20:05;;;;;;;4.90;2.00;;;;;;;;;;4949020;28;20142;-69
2023/03/14 13:22:36;;;;;;;4.35;1.60;;;;;;;;;;4966041;28;20046;-69
2023/03/14 13:25:06;;;;;;;2.22;1.20;;;;;;;;;;4950745;28;20107;-69
2023/03/14 13:27:35;;;;;;;2.47;1.10;;;;;;;;;;4951421;28;20162;-69
2023/03/14 13:30:16;;;;;;;3.10;1.27;;;;;;;;;;4951846;28;20051;-69
2023/03/14 13:32:45;;;;;;;5.10;2.40;;;;;;;;;;4952190;28;20117;-69
2023/03/14 13:35:17;;;;;;;2.45;1.23;;;;;;;;;;4951566;28;20101;-69
2023/03/14 13:37:44;;;;;;;2.63;1.20;;;;;;;;;;4951625;28;20361;-69
2023/03/14 13:40:20;;;;;;;2.17;1.13;;;;;;;;;;4951454;28;20073;-69
2023/03/14 13:42:48;;;;;;;2.03;1.30;;;;;;;;;;4952106;28;20057;-69
2023/03/14 13:45:16;;;;;;;1.70;1.20;;;;;;;;;;4951392;28;20058;-69
2023/03/14 13:47:45;;;;;;;2.70;1.05;;;;;;;;;;4951258;28;20082;-69
2023/03/14 13:50:17;;;;;;;1.30;0.98;;;;;;;;;;4964325;28;20280;-69
2023/03/14 13:52:43;;;;;;;2.17;1.10;;;;;;;;;;4951787;28;20494;-69
2023/03/14 13:55:15;;;;;;;1.20;1.10;;;;;;;;;;4951833;28;20413;-69
2023/03/14 13:57:47;;;;;;;4.30;1.00;;;;;;;;;;4951327;29;20055;-69
2023/03/14 14:00:26;;;;;;;1.88;1.13;;;;;;;;;;4951738;29;20073;-69
2023/03/14 14:02:54;;;;;;;3.05;0.98;;;;;;;;;;4959332;28;20571;-69
2023/03/14 14:05:20;;;;;;;1.17;0.90;;;;;;;;;;4970160;28;20138;-69
2023/03/14 14:07:47;;;;;;;2.05;0.80;;;;;;;;;;4967661;28;20121;-69
2023/03/14 14:10:15;;;;;;;2.03;1.88;;;;;;;;;;4971099;28;20047;-69
2023/03/14 14:12:49;;;;;;;1.67;0.90;;;;;;;;;;4970495;28;20042;-69
2023/03/14 14:15:19;;;;;;;1.45;0.82;;;;;;;;;;4970376;28;20097;-69
2023/03/14 14:17:51;;;;;;;1.27;0.85;;;;;;;;;;4970289;28;20054;-69
2023/03/14 14:20:23;;;;;;;3.95;2.10;;;;;;;;;;4970998;28;20062;-69
2023/03/14 14:22:50;;;;;;;2.15;1.00;;;;;;;;;;4970916;28;20043;-69
2023/03/14 14:25:17;;;;;;;2.55;0.93;;;;;;;;;;4970744;28;20085;-70
2023/03/14 14:27:48;;;;;;;2.28;0.73;;;;;;;;;;4962363;28;20071;-69
2023/03/14 14:30:31;;;;;;;3.38;0.90;;;;;;;;;;4950828;28;20412;-69
2023/03/14 14:33:29;;;;;;;1.17;1.05;;;;;;;;;;4952535;28;20065;-69
2023/03/14 14:35:58;;;;;;;4.45;1.10;;;;;;;;;;4905474;29;20063;-69
2023/03/14 14:38:25;;;;;;;1.83;0.80;;;;;;;;;;4937406;28;20538;-69
2023/03/14 14:40:55;;;;;;;1.13;0.98;;;;;;;;;;4950829;28;20051;-69
2023/03/14 14:43:24;;;;;;;1.98;0.80;;;;;;;;;;4951117;28;20142;-69
2023/03/14 14:45:53;;;;;;;1.98;1.02;;;;;;;;;;4950937;28;20512;-70
2023/03/14 14:48:23;;;;;;;3.25;1.20;;;;;;;;;;4950619;29;20573;-71
2023/03/14 14:50:57;;;;;;;2.70;1.75;;;;;;;;;;4951045;28;20066;-70
2023/03/14 14:53:27;;;;;;;3.20;1.75;;;;;;;;;;4950948;28;20097;-71
2023/03/14 14:55:55;;;;;;;1.85;1.00;;;;;;;;;;4950813;28;20569;-70
2023/03/14 14:58:25;;;;;;;1.95;0.90;;;;;;;;;;4951380;28;20062;-71
2023/03/14 15:00:56;;;;;;;3.33;1.05;;;;;;;;;;4950625;28;20053;-71
2023/03/14 15:03:23;;;;;;;2.67;0.80;;;;;;;;;;4951002;29;20055;-70
2023/03/14 15:05:51;;;;;;;4.32;1.05;;;;;;;;;;4950889;28;20143;-70
2023/03/14 15:08:18;;;;;;;1.55;0.90;;;;;;;;;;4950619;28;20547;-70
2023/03/14 15:10:44;;;;;;;2.15;1.00;;;;;;;;;;4950538;29;20083;-70
2023/03/14 15:13:11;;;;;;;2.22;0.90;;;;;;;;;;4950415;28;20141;-71
2023/03/14 15:15:37;;;;;;;4.45;1.00;;;;;;;;;;4950381;29;20053;-71
2023/03/14 15:18:13;;;;;;;1.83;1.00;;;;;;;;;;4950699;28;20047;-70
2023/03/14 15:20:40;;;;;;;2.38;0.80;;;;;;;;;;4950770;28;20055;-70
2023/03/14 15:23:11;;;;;;;2.03;1.10;;;;;;;;;;4950274;28;20055;-70
2023/03/14 15:25:39;;;;;;;2.25;1.33;;;;;;;;;;4950630;28;20075;-71
2023/03/14 15:28:14;;;;;;;3.25;1.00;;;;;;;;;;4949857;28;20054;-71
2023/03/14 15:30:41;;;;;;;2.13;0.80;;;;;;;;;;4950827;28;20057;-70